Time;durP1;ratioP1;P1;durP2;ratioP2;P2;SDS_P1;SDS_P2;PMS_P1;PMS_P2;Temp;Humidity;BMP_temperature;BMP_pressure;BME280_temperature;BME280_humidity;BME280_pressure;Samples;Min_cycle;Max_cycle;Signal;HPM_P1;HPM_P2
2022/01/02 00:00:09;;;;;;;2.75;2.53;;;;;;;-140.79;100.00;63287.88;5025645;28;20506;-54
2022/01/02 00:02:35;;;;;;;2.97;2.13;;;;;;;-140.79;100.00;63287.88;5025564;28;20036;-54
2022/01/02 00:05:11;;;;;;;2.95;2.20;;;;;;;-140.79;100.00;63287.88;5025309;28;20025;-54
2022/01/02 00:07:43;;;;;;;2.97;2.28;;;;;;;-140.79;100.00;63287.88;5025350;28;20514;-54
2022/01/02 00:10:09;;;;;;;2.65;2.10;;;;;;;-140.79;100.00;63287.88;5025320;28;20064;-53
2022/01/02 00:12:35;;;;;;;2.30;1.85;;;;;;;-140.79;100.00;63287.88;5040886;28;20033;-54
2022/01/02 00:15:05;;;;;;;3.03;2.45;;;;;;;-140.79;100.00;63287.88;5024988;28;20047;-54
2022/01/02 00:17:31;;;;;;;3.50;1.90;;;;;;;-140.79;100.00;63287.88;5024119;28;20116;-54
2022/01/02 00:19:58;;;;;;;328.92;52.05;;;;;;;-140.79;100.00;63287.88;5024996;28;20056;-54
2022/01/02 00:22:30;;;;;;;2.38;2.13;;;;;;;-140.79;100.00;63287.88;5025514;28;20041;-54
2022/01/02 00:24:56;;;;;;;2.63;2.15;;;;;;;-140.79;100.00;63287.88;5024960;28;20033;-54
2022/01/02 00:27:21;;;;;;;2.72;2.15;;;;;;;-140.79;100.00;63287.88;5025166;28;20465;-54
2022/01/02 00:29:47;;;;;;;3.10;2.40;;;;;;;-140.79;100.00;63287.88;5023686;28;20037;-54
2022/01/02 00:32:13;;;;;;;3.28;2.40;;;;;;;-140.79;100.00;63287.88;5023608;28;20496;-54
2022/01/02 00:34:39;;;;;;;26.73;4.57;;;;;;;-140.79;100.00;63287.88;5025116;28;20034;-54
2022/01/02 00:37:05;;;;;;;263.67;46.38;;;;;;;-140.79;100.00;63287.88;5024947;28;20052;-54
2022/01/02 00:39:30;;;;;;;83.43;13.05;;;;;;;-140.79;100.00;63287.88;5025071;28;20029;-54
2022/01/02 00:42:07;;;;;;;2.70;2.10;;;;;;;-140.79;100.00;63287.88;5025001;28;20048;-54
2022/01/02 00:44:47;;;;;;;2.72;2.22;;;;;;;-140.79;100.00;63287.88;5024825;28;20033;-54
2022/01/02 00:47:28;;;;;;;2.67;2.10;;;;;;;-140.79;100.00;63287.88;5023101;28;20404;-53
2022/01/02 00:50:14;;;;;;;2.58;2.10;;;;;;;-140.79;100.00;63287.88;5023664;28;20438;-54
2022/01/02 00:52:43;;;;;;;2.90;2.20;;;;;;;-140.79;100.00;63287.88;5025063;28;20507;-54
2022/01/02 00:55:22;;;;;;;2.65;2.22;;;;;;;-140.79;100.00;63287.88;5024475;28;20026;-54
2022/01/02 00:57:59;;;;;;;2.85;2.22;;;;;;;-140.79;100.00;63287.88;5024730;28;20029;-54
2022/01/02 01:00:24;;;;;;;2.33;1.90;;;;;;;-140.79;100.00;63287.88;5040243;28;20053;-54
2022/01/02 01:02:52;;;;;;;3.42;2.13;;;;;;;-140.79;100.00;63287.88;5024532;28;20076;-54
2022/01/02 01:05:23;;;;;;;3.53;2.17;;;;;;;-140.79;100.00;63287.88;5039933;28;20049;-54
2022/01/02 01:07:51;;;;;;;2.53;2.15;;;;;;;-140.79;100.00;63287.88;5023377;28;20116;-54
2022/01/02 01:10:16;;;;;;;2.67;2.15;;;;;;;-140.79;100.00;63287.88;5024830;28;20056;-54
2022/01/02 01:12:42;;;;;;;3.13;2.47;;;;;;;-140.79;100.00;63287.88;5024681;28;20021;-54
2022/01/02 01:15:08;;;;;;;2.58;2.15;;;;;;;-140.79;100.00;63287.88;5024629;28;20100;-54
2022/01/02 01:17:35;;;;;;;3.30;2.20;;;;;;;-140.79;100.00;63287.88;5039948;28;20053;-54
2022/01/02 01:20:01;;;;;;;2.60;2.30;;;;;;;-140.79;100.00;63287.88;5024785;28;20476;-54
2022/01/02 01:22:26;;;;;;;2.70;1.98;;;;;;;-140.79;100.00;63287.88;5024338;28;20050;-54
2022/01/02 01:24:51;;;;;;;2.72;2.17;;;;;;;-140.79;100.00;63287.88;5024105;28;20029;-54
2022/01/02 01:27:17;;;;;;;2.60;2.33;;;;;;;-140.79;100.00;63287.88;5023070;28;20030;-54
2022/01/02 01:29:42;;;;;;;2.50;2.30;;;;;;;-140.79;100.00;63287.88;5024612;28;20038;-54
2022/01/02 01:32:10;;;;;;;2.53;2.03;;;;;;;-140.79;100.00;63287.88;5025512;28;20029;-54
2022/01/02 01:34:35;;;;;;;2.60;2.17;;;;;;;-140.79;100.00;63287.88;5028465;28;20480;-54
2022/01/02 01:37:01;;;;;;;2.85;2.25;;;;;;;-140.79;100.00;63287.88;5028310;28;20115;-54
2022/01/02 01:39:26;;;;;;;2.30;1.80;;;;;;;-140.79;100.00;63287.88;5028281;28;20147;-54
2022/01/02 01:41:54;;;;;;;2.90;2.20;;;;;;;-140.79;100.00;63287.88;5028207;28;20041;-54
2022/01/02 01:46:45;;;;;;;1.92;1.70;;;;;;;-140.79;100.00;63287.88;5028361;28;20675;-55
2022/01/02 01:49:37;;;;;;;2.85;2.17;;;;;;;-140.79;100.00;63287.88;5027952;28;20423;-53
2022/01/02 01:52:02;;;;;;;2.90;2.38;;;;;;;-140.79;100.00;63287.88;5025249;28;20136;-54
2022/01/02 01:54:28;;;;;;;2.80;2.13;;;;;;;-140.79;100.00;63287.88;5028358;28;20566;-53
2022/01/02 01:56:53;;;;;;;2.63;2.03;;;;;;;-140.79;100.00;63287.88;5029591;28;20029;-54
2022/01/02 01:59:19;;;;;;;2.92;2.35;;;;;;;-140.79;100.00;63287.88;5034148;28;20017;-54
2022/01/02 02:01:45;;;;;;;2.28;2.00;;;;;;;-140.79;100.00;63287.88;5029915;28;20029;-54
2022/01/02 02:04:11;;;;;;;3.00;2.40;;;;;;;-140.79;100.00;63287.88;5028644;28;20060;-54
2022/01/02 02:06:37;;;;;;;2.53;2.00;;;;;;;-140.79;100.00;63287.88;5027843;28;20029;-54
2022/01/02 02:09:03;;;;;;;2.47;2.10;;;;;;;-140.79;100.00;63287.88;5027458;28;20749;-54
2022/01/02 02:11:29;;;;;;;2.95;2.15;;;;;;;-140.79;100.00;63287.88;5027865;28;20025;-55
2022/01/02 02:13:55;;;;;;;2.30;2.10;;;;;;;-140.79;100.00;63287.88;5026194;28;20029;-53
2022/01/02 02:16:21;;;;;;;2.38;2.05;;;;;;;-140.79;100.00;63287.88;5027613;28;20043;-53
2022/01/02 02:18:46;;;;;;;2.58;2.22;;;;;;;-140.79;100.00;63287.88;5027514;28;20029;-53
2022/01/02 02:21:12;;;;;;;3.20;2.13;;;;;;;-140.79;100.00;63287.88;5027333;28;20412;-53
2022/01/02 02:23:37;;;;;;;2.75;2.00;;;;;;;-140.79;100.00;63287.88;5027301;28;20053;-53
2022/01/02 02:26:03;;;;;;;2.80;2.22;;;;;;;-140.79;100.00;63287.88;5027390;28;20114;-53
2022/01/02 02:28:28;;;;;;;2.45;2.17;;;;;;;-140.79;100.00;63287.88;5027163;28;20034;-53
2022/01/02 02:30:54;;;;;;;2.92;2.20;;;;;;;-140.79;100.00;63287.88;5027003;28;20044;-54
2022/01/02 02:33:20;;;;;;;2.85;2.33;;;;;;;-140.79;100.00;63287.88;5027370;28;20032;-53
2022/01/02 02:35:46;;;;;;;2.40;1.90;;;;;;;-140.79;100.00;63287.88;5027329;28;20028;-53
2022/01/02 02:38:12;;;;;;;2.67;2.05;;;;;;;-140.79;100.00;63287.88;5026041;28;20033;-53
2022/01/02 02:40:38;;;;;;;2.33;2.13;;;;;;;-140.79;100.00;63287.88;5027292;28;20033;-53
2022/01/02 02:51:11;;;;;;;2.45;1.90;;;;;;;-140.79;100.00;63287.88;5026547;28;20768;-53
2022/01/02 02:53:43;;;;;;;2.95;2.17;;;;;;;-140.79;100.00;63287.88;5026650;28;20033;-53
2022/01/02 02:56:19;;;;;;;3.85;2.33;;;;;;;-140.79;100.00;63287.88;5027047;28;20037;-53
2022/01/02 02:58:45;;;;;;;2.92;2.10;;;;;;;-140.79;100.00;63287.88;5026757;28;20033;-53
2022/01/02 03:01:12;;;;;;;2.70;2.00;;;;;;;-140.79;100.00;63287.88;5026495;28;20034;-53
2022/01/02 03:03:38;;;;;;;2.65;2.15;;;;;;;-140.79;100.00;63287.88;5026496;28;20040;-53
2022/01/02 03:06:03;;;;;;;2.95;2.17;;;;;;;-140.79;100.00;63287.88;5026354;28;20318;-54
2022/01/02 03:08:29;;;;;;;2.55;2.15;;;;;;;-140.79;100.00;63287.88;5026681;28;20033;-54
2022/01/02 03:10:55;;;;;;;2.47;2.00;;;;;;;-140.79;100.00;63287.88;5025022;28;20508;-53
2022/01/02 03:13:20;;;;;;;2.83;2.30;;;;;;;-140.79;100.00;63287.88;5026514;28;20024;-53
2022/01/02 03:15:46;;;;;;;2.58;1.90;;;;;;;-140.79;100.00;63287.88;5025697;28;20018;-53
2022/01/02 03:18:11;;;;;;;2.35;1.90;;;;;;;-140.79;100.00;63287.88;5026805;28;20036;-53
2022/01/02 03:20:36;;;;;;;2.35;1.90;;;;;;;-140.79;100.00;63287.88;5025999;28;20026;-53
2022/01/02 03:23:02;;;;;;;2.92;2.13;;;;;;;-140.79;100.00;63287.88;5025830;28;20037;-54
2022/01/02 03:25:27;;;;;;;2.35;1.88;;;;;;;-140.79;100.00;63287.88;5026459;28;20030;-53
2022/01/02 03:27:53;;;;;;;2.30;1.95;;;;;;;-140.79;100.00;63287.88;5026282;28;20025;-53
2022/01/02 03:30:18;;;;;;;2.50;2.00;;;;;;;-140.79;100.00;63287.88;5026852;28;20033;-53
2022/01/02 03:32:43;;;;;;;2.65;2.15;;;;;;;-140.79;100.00;63287.88;5026481;28;20463;-53
2022/01/02 03:35:09;;;;;;;2.60;2.05;;;;;;;-140.79;100.00;63287.88;5026225;28;20029;-53
2022/01/02 03:37:34;;;;;;;2.78;2.20;;;;;;;-140.79;100.00;63287.88;5029418;28;20025;-53
2022/01/02 03:40:01;;;;;;;2.53;1.98;;;;;;;-140.79;100.00;63287.88;5029541;28;20424;-53
2022/01/02 03:42:26;;;;;;;2.47;2.15;;;;;;;-140.79;100.00;63287.88;5029795;28;20274;-53
2022/01/02 03:44:51;;;;;;;3.28;2.10;;;;;;;-140.79;100.00;63287.88;5027972;28;20459;-54
2022/01/02 03:47:17;;;;;;;2.10;1.88;;;;;;;-140.79;100.00;63287.88;5026986;28;20484;-54
2022/01/02 03:49:42;;;;;;;2.70;2.00;;;;;;;-140.79;100.00;63287.88;5027720;28;20034;-55
2022/01/02 03:52:08;;;;;;;2.47;1.92;;;;;;;-140.79;100.00;63287.88;5029425;28;20572;-56
2022/01/02 03:54:33;;;;;;;3.00;2.30;;;;;;;-140.79;100.00;63287.88;5028329;28;20432;-53
2022/01/02 03:56:59;;;;;;;2.45;1.92;;;;;;;-140.79;100.00;63287.88;5027885;28;20032;-56
2022/01/02 03:59:25;;;;;;;2.45;1.90;;;;;;;-140.79;100.00;63287.88;5025130;28;20021;-55
2022/01/02 04:01:50;;;;;;;2.78;1.80;;;;;;;-140.79;100.00;63287.88;5025391;28;20048;-54
2022/01/02 04:04:16;;;;;;;2.45;2.00;;;;;;;-140.79;100.00;63287.88;5025001;28;20040;-54
2022/01/02 04:06:42;;;;;;;2.55;1.95;;;;;;;-140.79;100.00;63287.88;5025493;28;20164;-54
2022/01/02 04:09:07;;;;;;;2.65;2.00;;;;;;;-140.79;100.00;63287.88;5024829;28;20193;-54
2022/01/02 04:11:33;;;;;;;2.38;1.85;;;;;;;-140.79;100.00;63287.88;5025101;28;20033;-55
2022/01/02 04:13:58;;;;;;;2.80;1.70;;;;;;;-140.79;100.00;63287.88;5025177;28;20033;-54
2022/01/02 04:16:24;;;;;;;2.45;1.77;;;;;;;-140.79;100.00;63287.88;5025821;28;20726;-54
2022/01/02 04:18:50;;;;;;;3.30;2.42;;;;;;;-140.79;100.00;63287.88;5025118;28;20558;-55
2022/01/02 04:21:15;;;;;;;3.15;2.08;;;;;;;-140.79;100.00;63287.88;5024858;28;20067;-55
2022/01/02 04:23:41;;;;;;;3.08;2.25;;;;;;;-140.79;100.00;63287.88;5024876;28;20436;-54
2022/01/02 04:26:06;;;;;;;3.33;2.03;;;;;;;-140.79;100.00;63287.88;5025115;28;20581;-55
2022/01/02 04:28:32;;;;;;;2.42;2.00;;;;;;;-140.79;100.00;63287.88;5025469;28;20030;-54
2022/01/02 04:30:57;;;;;;;2.53;1.83;;;;;;;-140.79;100.00;63287.88;5025054;28;20491;-55
2022/01/02 04:33:23;;;;;;;3.90;2.00;;;;;;;-140.79;100.00;63287.88;5026400;28;20484;-54
2022/01/02 04:35:48;;;;;;;3.13;2.10;;;;;;;-140.79;100.00;63287.88;5027397;28;20049;-54
2022/01/02 04:38:14;;;;;;;3.00;2.20;;;;;;;-140.79;100.00;63287.88;5040769;28;20042;-55
2022/01/02 04:40:40;;;;;;;2.28;2.00;;;;;;;-140.79;100.00;63287.88;5026928;28;20510;-54
2022/01/02 04:43:06;;;;;;;3.30;2.20;;;;;;;-140.79;100.00;63287.88;5025659;28;20033;-55
2022/01/02 04:45:31;;;;;;;2.72;1.90;;;;;;;-140.79;100.00;63287.88;5025349;28;20052;-54
2022/01/02 04:47:57;;;;;;;2.80;2.13;;;;;;;-140.79;100.00;63287.88;5040062;28;20037;-54
2022/01/02 04:50:23;;;;;;;3.05;2.17;;;;;;;-140.79;100.00;63287.88;5024732;28;20041;-55
2022/01/02 04:52:48;;;;;;;3.13;2.17;;;;;;;-140.79;100.00;63287.88;5039758;28;20037;-55
2022/01/02 04:55:14;;;;;;;2.28;1.77;;;;;;;-140.79;100.00;63287.88;5024679;28;20036;-54
2022/01/02 04:57:39;;;;;;;2.72;2.20;;;;;;;-140.79;100.00;63287.88;5024988;28;20404;-54
2022/01/02 05:00:06;;;;;;;3.28;2.10;;;;;;;-140.79;100.00;63287.88;5024941;28;20659;-54
2022/01/02 05:02:31;;;;;;;3.05;2.10;;;;;;;-140.79;100.00;63287.88;5026196;28;20017;-55
2022/01/02 05:04:57;;;;;;;2.85;2.05;;;;;;;-140.79;100.00;63287.88;5024730;28;20030;-54
2022/01/02 05:07:22;;;;;;;2.67;2.10;;;;;;;-140.79;100.00;63287.88;5027703;28;20014;-54
2022/01/02 05:09:47;;;;;;;3.33;1.92;;;;;;;-140.79;100.00;63287.88;5028399;28;20038;-54
2022/01/02 05:12:13;;;;;;;2.47;1.90;;;;;;;-140.79;100.00;63287.88;5028558;28;20034;-55
2022/01/02 05:14:38;;;;;;;3.22;2.20;;;;;;;-140.79;100.00;63287.88;5028708;28;20025;-54
2022/01/02 05:17:04;;;;;;;3.28;2.13;;;;;;;-140.79;100.00;63287.88;5028158;28;20559;-54
2022/01/02 05:19:29;;;;;;;3.70;2.00;;;;;;;-140.79;100.00;63287.88;5028418;28;20091;-54
2022/01/02 05:21:55;;;;;;;2.50;2.10;;;;;;;-140.79;100.00;63287.88;5028303;28;20045;-54
2022/01/02 05:24:20;;;;;;;3.22;2.13;;;;;;;-140.79;100.00;63287.88;5028447;28;20404;-54
2022/01/02 05:26:45;;;;;;;2.90;2.20;;;;;;;-140.79;100.00;63287.88;5028433;28;20484;-55
2022/01/02 05:29:11;;;;;;;2.75;2.20;;;;;;;-140.79;100.00;63287.88;5027960;28;20037;-54
2022/01/02 05:31:36;;;;;;;3.35;2.10;;;;;;;-140.79;100.00;63287.88;5028155;28;20033;-54
2022/01/02 05:34:02;;;;;;;3.75;2.38;;;;;;;-140.79;100.00;63287.88;5028007;28;20030;-54
2022/01/02 05:36:27;;;;;;;2.60;1.90;;;;;;;-140.79;100.00;63287.88;5028203;28;20022;-54
2022/01/02 05:38:53;;;;;;;2.67;2.00;;;;;;;-140.79;100.00;63287.88;5028107;28;20030;-54
2022/01/02 05:41:18;;;;;;;3.20;2.40;;;;;;;-140.79;100.00;63287.88;5027864;28;20025;-54
2022/01/02 05:43:44;;;;;;;2.60;2.30;;;;;;;-140.79;100.00;63287.88;5027887;28;20052;-54
2022/01/02 05:46:09;;;;;;;3.78;2.10;;;;;;;-140.79;100.00;63287.88;5027949;28;20018;-55
2022/01/02 05:48:36;;;;;;;2.67;2.20;;;;;;;-140.79;100.00;63287.88;5043290;28;20025;-54
2022/01/02 05:51:01;;;;;;;2.85;2.22;;;;;;;-140.79;100.00;63287.88;5027563;28;20068;-54
2022/01/02 05:53:28;;;;;;;2.63;2.00;;;;;;;-140.79;100.00;63287.88;5027891;28;20029;-54
2022/01/02 05:55:54;;;;;;;3.03;2.08;;;;;;;-140.79;100.00;63287.88;5027991;28;20064;-54
2022/01/02 05:58:19;;;;;;;2.97;2.30;;;;;;;-140.79;100.00;63287.88;5027973;28;20048;-55
2022/01/02 06:00:44;;;;;;;2.83;2.20;;;;;;;-140.79;100.00;63287.88;5027815;28;20155;-54
2022/01/02 06:03:10;;;;;;;2.33;2.00;;;;;;;-140.79;100.00;63287.88;5027327;28;20052;-54
2022/01/02 06:05:35;;;;;;;3.47;2.20;;;;;;;-140.79;100.00;63287.88;5026184;28;20496;-54
2022/01/02 06:08:02;;;;;;;2.50;1.95;;;;;;;-140.79;100.00;63287.88;5027838;28;20034;-54
2022/01/02 06:10:27;;;;;;;2.45;2.00;;;;;;;-140.79;100.00;63287.88;5027507;28;20051;-54
2022/01/02 06:12:53;;;;;;;2.90;2.10;;;;;;;-140.79;100.00;63287.88;5027603;28;20496;-54
2022/01/02 06:15:18;;;;;;;2.30;2.00;;;;;;;-140.79;100.00;63287.88;5027167;28;20025;-54
2022/01/02 06:17:43;;;;;;;3.28;2.30;;;;;;;-140.79;100.00;63287.88;5026681;28;20041;-55
2022/01/02 06:20:09;;;;;;;2.90;2.28;;;;;;;-140.79;100.00;63287.88;5027382;28;20040;-54
2022/01/02 06:22:34;;;;;;;2.40;2.00;;;;;;;-140.79;100.00;63287.88;5015205;28;20504;-54
2022/01/02 06:25:00;;;;;;;2.40;1.95;;;;;;;-140.79;100.00;63287.88;5023703;28;20495;-54
2022/01/02 06:27:25;;;;;;;2.70;1.92;;;;;;;-140.79;100.00;63287.88;5013115;28;20014;-54
2022/01/02 06:29:50;;;;;;;2.50;2.10;;;;;;;-140.79;100.00;63287.88;5027369;28;20029;-54
2022/01/02 06:32:16;;;;;;;2.53;2.05;;;;;;;-140.79;100.00;63287.88;5014988;28;20115;-54
2022/01/02 06:34:44;;;;;;;2.00;1.75;;;;;;;-140.79;100.00;63287.88;5008789;28;20034;-54
2022/01/02 06:37:09;;;;;;;2.28;1.80;;;;;;;-140.79;100.00;63287.88;5008883;28;20038;-55
2022/01/02 06:39:35;;;;;;;2.83;2.13;;;;;;;-140.79;100.00;63287.88;5009963;28;20099;-55
2022/01/02 06:42:00;;;;;;;3.40;1.90;;;;;;;-140.79;100.00;63287.88;5015138;28;20030;-55
2022/01/02 06:44:25;;;;;;;2.47;1.75;;;;;;;-140.79;100.00;63287.88;5027081;28;20068;-55
2022/01/02 06:46:51;;;;;;;2.90;1.90;;;;;;;-140.79;100.00;63287.88;5026600;28;20037;-55
2022/01/02 06:49:16;;;;;;;2.40;1.70;;;;;;;-140.79;100.00;63287.88;5026667;28;20520;-54
2022/01/02 06:51:42;;;;;;;2.42;1.73;;;;;;;-140.79;100.00;63287.88;5023930;28;20064;-56
2022/01/02 06:54:07;;;;;;;2.50;1.85;;;;;;;-140.79;100.00;63287.88;5026486;28;20048;-54
2022/01/02 06:56:32;;;;;;;2.72;1.95;;;;;;;-140.79;100.00;63287.88;5012843;28;20423;-55
2022/01/02 06:58:58;;;;;;;2.45;1.85;;;;;;;-140.79;100.00;63287.88;5012479;28;20493;-54
2022/01/02 07:01:23;;;;;;;2.47;1.60;;;;;;;-140.79;100.00;63287.88;5011376;28;20021;-54
2022/01/02 07:03:49;;;;;;;2.42;1.70;;;;;;;-140.79;100.00;63287.88;5016506;28;20024;-54
2022/01/02 07:06:14;;;;;;;3.75;1.50;;;;;;;-140.79;100.00;63287.88;5013753;28;20033;-54
2022/01/02 07:08:39;;;;;;;2.15;1.70;;;;;;;-140.79;100.00;63287.88;5013677;28;20025;-54
2022/01/02 07:11:07;;;;;;;2.72;1.90;;;;;;;-140.79;100.00;63287.88;5007430;28;20034;-56
2022/01/02 07:13:32;;;;;;;3.65;1.88;;;;;;;-140.79;100.00;63287.88;5010132;28;20087;-55
2022/01/02 07:15:58;;;;;;;2.50;1.52;;;;;;;-140.79;100.00;63287.88;5022652;28;20512;-54
2022/01/02 07:18:23;;;;;;;2.45;1.83;;;;;;;-140.79;100.00;63287.88;5005953;28;20049;-55
2022/01/02 07:20:49;;;;;;;2.03;1.45;;;;;;;-140.79;100.00;63287.88;5007193;28;20049;-55
2022/01/02 07:23:14;;;;;;;2.20;1.80;;;;;;;-140.79;100.00;63287.88;5008478;28;20489;-55
2022/01/02 07:25:40;;;;;;;2.55;1.70;;;;;;;-140.79;100.00;63287.88;5006537;28;20026;-55
2022/01/02 07:28:05;;;;;;;3.08;1.70;;;;;;;-140.79;100.00;63287.88;5005661;28;20030;-55
2022/01/02 07:30:30;;;;;;;2.72;1.77;;;;;;;-140.79;100.00;63287.88;5004820;28;20026;-56
2022/01/02 07:33:01;;;;;;;3.25;1.80;;;;;;;-140.79;100.00;63287.88;5005922;28;20069;-56
2022/01/02 07:35:28;;;;;;;3.08;2.00;;;;;;;-140.79;100.00;63287.88;5009064;28;20052;-55
2022/01/02 07:37:54;;;;;;;4.05;1.70;;;;;;;-140.79;100.00;63287.88;5007858;28;20094;-59
2022/01/02 07:40:19;;;;;;;2.78;1.92;;;;;;;-140.79;100.00;63287.88;5006496;28;20034;-59
2022/01/02 07:42:44;;;;;;;2.05;1.50;;;;;;;-140.79;100.00;63287.88;5007379;28;20037;-55
2022/01/02 07:45:10;;;;;;;2.22;1.65;;;;;;;-140.79;100.00;63287.88;5005424;28;20060;-55
2022/01/02 07:47:38;;;;;;;3.35;1.90;;;;;;;-140.79;100.00;63287.88;4979357;28;20050;-55
2022/01/02 07:50:03;;;;;;;2.75;1.83;;;;;;;-140.79;100.00;63287.88;5008041;28;20029;-54
2022/01/02 07:52:29;;;;;;;4.07;2.10;;;;;;;-140.79;100.00;63287.88;5006191;28;20018;-54
2022/01/02 07:54:54;;;;;;;3.22;1.88;;;;;;;-140.79;100.00;63287.88;5005182;28;20021;-54
2022/01/02 07:57:20;;;;;;;2.53;1.90;;;;;;;-140.79;100.00;63287.88;5005024;28;20036;-53
2022/01/02 07:59:45;;;;;;;2.60;1.90;;;;;;;-140.79;100.00;63287.88;5004853;28;20420;-54
2022/01/02 08:02:11;;;;;;;3.38;2.00;;;;;;;-140.79;100.00;63287.88;5004814;28;20484;-56
2022/01/02 08:04:36;;;;;;;3.10;1.65;;;;;;;-140.79;100.00;63287.88;5006127;28;20503;-56
2022/01/02 08:07:01;;;;;;;3.05;1.80;;;;;;;-140.79;100.00;63287.88;5005550;28;20030;-54
2022/01/02 08:09:27;;;;;;;4.35;2.00;;;;;;;-140.79;100.00;63287.88;5011447;28;20026;-53
2022/01/02 08:11:52;;;;;;;2.28;1.70;;;;;;;-140.79;100.00;63287.88;5019513;28;20041;-52
2022/01/02 08:14:18;;;;;;;3.45;1.98;;;;;;;-140.79;100.00;63287.88;5015899;28;20026;-53
2022/01/02 08:16:43;;;;;;;2.58;1.80;;;;;;;-140.79;100.00;63287.88;5007198;28;20042;-53
2022/01/02 08:19:09;;;;;;;2.97;1.63;;;;;;;-140.79;100.00;63287.88;5007536;28;20026;-53
2022/01/02 08:21:34;;;;;;;2.35;1.77;;;;;;;-140.79;100.00;63287.88;5010542;28;20025;-54
2022/01/02 08:24:00;;;;;;;3.67;1.98;;;;;;;-140.79;100.00;63287.88;5024710;28;20049;-54
2022/01/02 08:26:26;;;;;;;4.60;1.92;;;;;;;-140.79;100.00;63287.88;5025159;28;20035;-55
2022/01/02 08:28:52;;;;;;;3.05;1.92;;;;;;;-140.79;100.00;63287.88;5025196;28;20041;-55
2022/01/02 08:31:17;;;;;;;4.15;2.10;;;;;;;-140.79;100.00;63287.88;5021683;28;20037;-55
2022/01/02 08:33:42;;;;;;;2.60;1.58;;;;;;;-140.79;100.00;63287.88;5021700;28;20033;-56
2022/01/02 08:36:08;;;;;;;4.03;1.80;;;;;;;-140.79;100.00;63287.88;5025096;28;20064;-55
2022/01/02 08:38:33;;;;;;;3.55;1.92;;;;;;;-140.79;100.00;63287.88;5024163;28;20496;-55
2022/01/02 08:40:59;;;;;;;2.80;1.83;;;;;;;-140.79;100.00;63287.88;5024933;28;20021;-55
2022/01/02 08:43:24;;;;;;;3.00;1.90;;;;;;;-140.79;100.00;63287.88;5024784;28;20033;-55
2022/01/02 08:45:50;;;;;;;4.10;1.58;;;;;;;-140.79;100.00;63287.88;5025220;28;20029;-56
2022/01/02 08:48:15;;;;;;;2.85;1.80;;;;;;;-140.79;100.00;63287.88;5024334;28;20029;-55
2022/01/02 08:50:40;;;;;;;3.47;1.90;;;;;;;-140.79;100.00;63287.88;5024810;28;20365;-55
2022/01/02 08:53:06;;;;;;;2.85;1.80;;;;;;;-140.79;100.00;63287.88;5024635;28;20042;-55
2022/01/02 08:55:33;;;;;;;4.45;2.10;;;;;;;-140.79;100.00;63287.88;5024718;28;20029;-56
2022/01/02 08:57:59;;;;;;;3.50;2.17;;;;;;;-140.79;100.00;63287.88;5024688;28;20103;-56
2022/01/02 09:00:24;;;;;;;2.60;1.58;;;;;;;-140.79;100.00;63287.88;5025008;28;20037;-55
2022/01/02 09:02:49;;;;;;;2.85;1.90;;;;;;;-140.79;100.00;63287.88;5025048;28;20033;-55
2022/01/02 09:05:15;;;;;;;3.13;2.00;;;;;;;-140.79;100.00;63287.88;5024586;28;20026;-55
2022/01/02 09:07:40;;;;;;;3.33;2.00;;;;;;;-140.79;100.00;63287.88;5039830;28;20076;-56
2022/01/02 09:10:06;;;;;;;3.33;2.10;;;;;;;-140.79;100.00;63287.88;5024823;28;20049;-55
2022/01/02 09:12:32;;;;;;;2.95;1.77;;;;;;;-140.79;100.00;63287.88;5024563;28;20056;-55
2022/01/02 09:14:57;;;;;;;4.05;1.98;;;;;;;-140.79;100.00;63287.88;5024825;28;20075;-55
2022/01/02 09:17:22;;;;;;;3.28;1.80;;;;;;;-140.79;100.00;63287.88;5024348;28;20033;-55
2022/01/02 09:19:49;;;;;;;3.17;1.95;;;;;;;-140.79;100.00;63287.88;5024921;28;20037;-56
2022/01/02 09:22:14;;;;;;;3.33;1.70;;;;;;;-140.79;100.00;63287.88;5024437;28;20099;-55
2022/01/02 09:24:40;;;;;;;3.35;2.10;;;;;;;-140.79;100.00;63287.88;5024373;28;20037;-56
2022/01/02 09:27:05;;;;;;;2.63;1.60;;;;;;;-140.79;100.00;63287.88;5024682;28;20036;-56
2022/01/02 09:29:31;;;;;;;2.88;1.50;;;;;;;-140.79;100.00;63287.88;5023971;28;20044;-55
2022/01/02 09:31:56;;;;;;;3.13;1.83;;;;;;;-140.79;100.00;63287.88;5024191;28;20041;-54
2022/01/02 09:34:22;;;;;;;2.30;1.70;;;;;;;-140.79;100.00;63287.88;5024268;28;20535;-54
2022/01/02 09:36:48;;;;;;;3.40;1.70;;;;;;;-140.79;100.00;63287.88;5024007;28;20415;-54
2022/01/02 09:39:13;;;;;;;2.40;1.65;;;;;;;-140.79;100.00;63287.88;5023833;28;20060;-54
2022/01/02 09:41:39;;;;;;;2.58;1.88;;;;;;;-140.79;100.00;63287.88;5013831;28;20514;-54
2022/01/02 09:44:05;;;;;;;2.28;1.60;;;;;;;-140.79;100.00;63287.88;5005218;28;20026;-54
2022/01/02 09:46:30;;;;;;;2.88;1.52;;;;;;;-140.79;100.00;63287.88;5006849;28;20033;-54
2022/01/02 09:48:56;;;;;;;2.75;1.63;;;;;;;-140.79;100.00;63287.88;5003035;28;20037;-54
2022/01/02 09:51:25;;;;;;;2.80;1.63;;;;;;;-140.79;100.00;63287.88;5004767;28;20030;-53
2022/01/02 09:53:51;;;;;;;3.35;1.83;;;;;;;-140.79;100.00;63287.88;5006949;28;20038;-54
2022/01/02 09:56:17;;;;;;;2.33;1.50;;;;;;;-140.79;100.00;63287.88;5008336;28;20033;-55
2022/01/02 09:58:44;;;;;;;3.25;1.50;;;;;;;-140.79;100.00;63287.88;5020995;28;20033;-55
2022/01/02 10:01:22;;;;;;;3.20;1.60;;;;;;;-140.79;100.00;63287.88;5016416;28;20037;-54
2022/01/02 10:03:54;;;;;;;2.80;1.95;;;;;;;-140.79;100.00;63287.88;5007379;28;20599;-54
2022/01/02 10:06:20;;;;;;;2.88;1.77;;;;;;;-140.79;100.00;63287.88;5007604;28;20163;-54
2022/01/02 10:08:49;;;;;;;3.30;1.52;;;;;;;-140.79;100.00;63287.88;5007477;28;20526;-55
2022/01/02 10:11:21;;;;;;;2.85;2.08;;;;;;;-140.79;100.00;63287.88;5007747;28;20044;-55
2022/01/02 10:13:52;;;;;;;2.80;1.80;;;;;;;-140.79;100.00;63287.88;5025159;28;20118;-56
2022/01/02 10:16:19;;;;;;;1.98;1.40;;;;;;;-140.79;100.00;63287.88;5007773;28;20096;-55
2022/01/02 10:18:45;;;;;;;2.00;1.58;;;;;;;-140.79;100.00;63287.88;5007728;28;20045;-55
2022/01/02 10:21:10;;;;;;;2.90;1.48;;;;;;;-140.79;100.00;63287.88;5007368;28;20033;-54
2022/01/02 10:23:36;;;;;;;2.28;1.40;;;;;;;-140.79;100.00;63287.88;5007913;28;20531;-60
2022/01/02 10:26:01;;;;;;;1.90;1.35;;;;;;;-140.79;100.00;63287.88;5022477;28;20508;-54
2022/01/02 10:28:27;;;;;;;2.95;1.70;;;;;;;-140.79;100.00;63287.88;5018985;28;20049;-59
2022/01/02 10:31:03;;;;;;;1.83;1.40;;;;;;;-140.79;100.00;63287.88;5028748;28;20480;-54
2022/01/02 10:33:45;;;;;;;2.22;1.30;;;;;;;-140.79;100.00;63287.88;5026619;28;20040;-55
2022/01/02 10:36:11;;;;;;;2.22;1.40;;;;;;;-140.79;100.00;63287.88;5009276;28;20393;-55
2022/01/02 10:38:36;;;;;;;2.35;1.38;;;;;;;-140.79;100.00;63287.88;5010260;28;20028;-56
2022/01/02 10:41:01;;;;;;;2.17;1.48;;;;;;;-140.79;100.00;63287.88;5024150;28;20022;-56
2022/01/02 10:43:33;;;;;;;2.88;1.70;;;;;;;-140.79;100.00;63287.88;5025908;28;20037;-56
2022/01/02 10:46:02;;;;;;;2.55;1.40;;;;;;;-140.79;100.00;63287.88;5006955;28;20014;-55
2022/01/02 10:48:35;;;;;;;2.15;1.48;;;;;;;-140.79;100.00;63287.88;5006918;28;20029;-56
2022/01/02 10:51:24;;;;;;;1.73;1.33;;;;;;;-140.79;100.00;63287.88;5022140;28;20072;-59
2022/01/02 10:53:54;;;;;;;1.98;1.20;;;;;;;-140.79;100.00;63287.88;5014054;28;20065;-55
2022/01/02 10:56:21;;;;;;;2.83;1.65;;;;;;;-140.79;100.00;63287.88;5026560;28;20476;-56
2022/01/02 10:58:46;;;;;;;2.53;1.60;;;;;;;-140.79;100.00;63287.88;5026652;28;20121;-57
2022/01/02 11:01:12;;;;;;;2.17;1.35;;;;;;;-140.79;100.00;63287.88;5024531;28;20500;-58
2022/01/02 11:03:37;;;;;;;3.05;1.17;;;;;;;-140.79;100.00;63287.88;5024465;28;20018;-57
2022/01/02 11:06:08;;;;;;;2.78;1.50;;;;;;;-140.79;100.00;63287.88;5026093;28;20479;-54
2022/01/02 11:08:35;;;;;;;5.15;1.33;;;;;;;-140.79;100.00;63287.88;5026211;28;20036;-54
2022/01/02 11:11:01;;;;;;;3.25;1.50;;;;;;;-140.79;100.00;63287.88;5026357;28;20025;-55
2022/01/02 11:13:27;;;;;;;2.00;1.40;;;;;;;-140.79;100.00;63287.88;5026083;28;20068;-54
2022/01/02 11:15:53;;;;;;;1.70;1.00;;;;;;;-140.79;100.00;63287.88;5017629;28;20448;-54